Allamuchy, New Jersey
Current Conditions -  °F | °C
As of 6:53 AM on Saturday 25 Oct 2014 (Local Time) from KFWN Reporting Station
Clear Clear  
Wind Chill: 40°   Ceiling: Unl
Heat Index: 40°   Visibility: 10mi
Dew Point: 34°   Wind: 3mph
Humidity: 79%   Direction: 200°SSW
Pressure: 29.88"   Gusts: NA
Location:  40.92°N, 74.81°W
Report Text: KFWN 251053Z AUTO 20003KT 10SM CLR 04/01 A2988 RMK AO2 SLP118 T00440011
Loading
Personal Weather Stations






























Interactive Weather Map
Tropical Storm Tracking
New forecast layout! Learn more

10-Day Weather Forecast

Advertisements
Track Severe Weather on mobile